Time;durP1;ratioP1;P1;durP2;ratioP2;P2;SDS_P1;SDS_P2;PMS_P1;PMS_P2;Temp;Humidity;BMP_temperature;BMP_pressure;BME280_temperature;BME280_humidity;BME280_pressure;Samples;Min_cycle;Max_cycle;Signal;HPM_P1;HPM_P2
2022/04/23 00:01:43;;;;;;;18.13;11.48;;;;;;;10.14;69.83;100436.88;5029372;28;20390;-68
2022/04/23 00:04:14;;;;;;;18.55;11.88;;;;;;;10.12;69.93;100425.56;5033011;28;20045;-68
2022/04/23 00:06:43;;;;;;;16.35;12.82;;;;;;;10.09;69.67;100425.66;5031391;28;20042;-68
2022/04/23 00:09:10;;;;;;;20.27;12.75;;;;;;;10.07;69.99;100419.59;5033554;28;20046;-68
2022/04/23 00:11:37;;;;;;;16.75;12.65;;;;;;;10.06;70.22;100423.13;5032156;28;20064;-67
2022/04/23 00:14:05;;;;;;;17.77;12.10;;;;;;;10.04;70.44;100419.69;5031610;28;20408;-67
2022/04/23 00:16:32;;;;;;;17.02;12.48;;;;;;;10.02;70.36;100421.53;5031696;28;20427;-68
2022/04/23 00:18:59;;;;;;;15.82;12.38;;;;;;;10.00;70.36;100418.09;5034797;28;20041;-67
2022/04/23 00:21:28;;;;;;;17.48;13.02;;;;;;;9.97;70.81;100420.81;5020503;28;20042;-67
2022/04/23 00:23:55;;;;;;;17.63;12.88;;;;;;;9.94;70.83;100421.78;5032199;28;20125;-68
2022/04/23 00:26:22;;;;;;;15.20;12.93;;;;;;;9.90;71.20;100425.44;5027222;28;20042;-66
2022/04/23 00:28:51;;;;;;;19.25;12.98;;;;;;;9.87;71.26;100420.28;5032342;28;20547;-68
2022/04/23 00:31:19;;;;;;;19.35;12.27;;;;;;;9.82;71.50;100423.06;5029647;28;20456;-68
2022/04/23 00:33:46;;;;;;;19.15;13.98;;;;;;;9.79;71.33;100428.44;5030183;28;20054;-67
2022/04/23 00:36:13;;;;;;;17.92;12.85;;;;;;;9.76;71.82;100425.91;5032298;28;20038;-67
2022/04/23 00:38:42;;;;;;;18.65;13.45;;;;;;;9.74;71.75;100423.34;5033562;28;20041;-70
2022/04/23 00:41:43;;;;;;;17.48;13.35;;;;;;;9.71;71.62;100426.06;5034172;28;20042;-68
2022/04/23 00:44:01;;;;;;;19.85;13.98;;;;;;;9.66;71.71;100432.38;5025842;28;20044;-69
2022/04/23 00:46:28;;;;;;;21.05;13.20;;;;;;;9.60;72.36;100436.06;5032182;28;20389;-69
2022/04/23 00:48:55;;;;;;;17.63;13.57;;;;;;;9.56;72.31;100435.31;5034617;28;20486;-68
2022/04/23 00:51:22;;;;;;;18.10;13.88;;;;;;;9.55;72.45;100435.38;5031696;28;20735;-68
2022/04/23 00:53:49;;;;;;;19.35;14.73;;;;;;;9.52;72.46;100435.47;5031241;28;20085;-68
2022/04/23 00:56:17;;;;;;;17.88;14.27;;;;;;;9.50;72.75;100434.66;5033044;28;20468;-69
2022/04/23 00:58:45;;;;;;;19.98;14.63;;;;;;;9.48;72.98;100440.81;5032791;28;20037;-69
2022/04/23 01:01:14;;;;;;;21.00;14.88;;;;;;;9.45;73.16;100434.81;5030913;28;20045;-70
2022/04/23 01:03:52;;;;;;;21.42;14.98;;;;;;;9.42;73.06;100433.13;5027637;28;20045;-68
2022/04/23 01:06:20;;;;;;;19.45;14.45;;;;;;;9.39;73.24;100442.91;5030314;28;20047;-69
2022/04/23 01:08:47;;;;;;;20.58;14.55;;;;;;;9.37;73.60;100440.31;5030576;28;20046;-67
2022/04/23 01:11:15;;;;;;;19.85;15.25;;;;;;;9.37;73.78;100444.72;5017006;28;20140;-69
2022/04/23 01:13:44;;;;;;;21.42;14.90;;;;;;;9.35;74.02;100449.16;5032667;28;20038;-68
2022/04/23 01:16:11;;;;;;;21.60;15.32;;;;;;;9.31;73.79;100437.88;5031102;28;20038;-69
2022/04/23 01:18:42;;;;;;;23.33;16.05;;;;;;;9.29;73.89;100440.56;5032797;28;20048;-68
2022/04/23 01:21:10;;;;;;;20.85;15.73;;;;;;;9.26;73.74;100445.91;5032945;28;20053;-68
2022/04/23 01:23:42;;;;;;;20.98;15.88;;;;;;;9.24;74.50;100444.25;5032458;28;20515;-68
2022/04/23 01:26:10;;;;;;;21.42;16.02;;;;;;;9.20;74.26;100438.22;5031449;28;20038;-68
2022/04/23 01:28:38;;;;;;;22.02;16.20;;;;;;;9.20;74.58;100437.34;5032135;28;20096;-67
2022/04/23 01:31:06;;;;;;;24.25;16.58;;;;;;;9.16;74.30;100434.81;5031598;28;20042;-67
2022/04/23 01:33:34;;;;;;;23.50;16.80;;;;;;;9.16;74.76;100441.84;5017062;28;20063;-67
2022/04/23 01:36:02;;;;;;;24.02;17.70;;;;;;;9.15;74.90;100433.09;5032519;28;20530;-67
2022/04/23 01:38:29;;;;;;;22.83;17.40;;;;;;;9.16;74.96;100442.69;5030100;28;20128;-65
2022/04/23 01:40:56;;;;;;;24.42;18.00;;;;;;;9.13;75.06;100434.03;5027678;28;20042;-66
2022/04/23 01:43:24;;;;;;;24.15;17.40;;;;;;;9.09;74.85;100433.28;5029739;28;20496;-68
2022/04/23 01:45:51;;;;;;;25.05;17.00;;;;;;;9.08;75.46;100441.22;5033070;28;20065;-68
2022/04/23 01:48:18;;;;;;;24.98;17.95;;;;;;;9.06;75.17;100441.25;5029192;28;20076;-68
2022/04/23 01:50:45;;;;;;;27.00;16.83;;;;;;;9.04;75.33;100437.84;5032140;28;20759;-68
2022/04/23 01:53:12;;;;;;;23.83;17.60;;;;;;;9.02;75.36;100444.91;5027772;28;20042;-68
2022/04/23 01:55:39;;;;;;;24.45;17.30;;;;;;;9.02;75.63;100450.16;5033052;28;20092;-67
2022/04/23 01:58:06;;;;;;;25.63;18.63;;;;;;;9.01;75.37;100448.44;5028423;28;20042;-67
2022/04/23 02:00:33;;;;;;;23.20;17.50;;;;;;;8.98;75.84;100445.88;5030912;28;20555;-66
2022/04/23 02:03:01;;;;;;;25.63;18.45;;;;;;;8.97;75.64;100445.03;5023567;28;20038;-68
2022/04/23 02:05:28;;;;;;;27.25;18.65;;;;;;;8.94;75.65;100439.88;5023221;28;20037;-67
2022/04/23 02:07:55;;;;;;;25.27;18.02;;;;;;;8.93;75.93;100438.13;5028060;28;20050;-67
2022/04/23 02:10:23;;;;;;;23.95;18.52;;;;;;;8.93;75.87;100442.56;5025362;28;20041;-68
2022/04/23 02:12:50;;;;;;;25.67;18.98;;;;;;;8.91;75.88;100444.34;5025747;28;20057;-67
2022/04/23 02:15:17;;;;;;;24.88;18.02;;;;;;;8.90;76.13;100438.25;5029032;28;20064;-68
2022/04/23 02:17:47;;;;;;;25.42;18.77;;;;;;;8.89;76.50;100439.16;5027250;28;20053;-67
2022/04/23 02:20:16;;;;;;;24.50;18.85;;;;;;;8.88;76.64;100434.81;5030506;28;20085;-68
2022/04/23 02:22:47;;;;;;;25.13;18.80;;;;;;;8.88;76.64;100433.91;5028781;28;20046;-67
2022/04/23 02:25:16;;;;;;;26.23;18.73;;;;;;;8.85;76.73;100435.72;5030712;28;20053;-67
2022/04/23 02:27:49;;;;;;;27.27;19.35;;;;;;;8.85;76.78;100433.09;5027411;28;20097;-69
2022/04/23 02:30:20;;;;;;;24.67;18.33;;;;;;;8.82;76.56;100433.22;5020247;28;20454;-67
2022/04/23 02:32:48;;;;;;;27.20;19.98;;;;;;;8.84;77.19;100435.78;5029045;28;20053;-67
2022/04/23 02:35:19;;;;;;;27.67;18.77;;;;;;;8.85;77.19;100440.13;5024186;28;20043;-67
2022/04/23 02:37:48;;;;;;;28.48;19.50;;;;;;;8.83;76.78;100439.31;5021625;28;20104;-67
2022/04/23 02:40:16;;;;;;;29.10;19.77;;;;;;;8.84;76.98;100441.91;5030472;28;20472;-67
2022/04/23 02:42:44;;;;;;;27.77;19.63;;;;;;;8.84;76.84;100447.19;5028529;28;20048;-67
2022/04/23 02:45:15;;;;;;;27.90;19.95;;;;;;;8.83;77.07;100445.44;5026811;28;20053;-67
2022/04/23 02:47:44;;;;;;;28.33;20.48;;;;;;;8.80;77.11;100435.03;5029636;28;20049;-67
2022/04/23 02:50:14;;;;;;;27.13;20.30;;;;;;;8.81;77.36;100439.38;5030130;28;20042;-68
2022/04/23 02:52:44;;;;;;;26.38;20.00;;;;;;;8.80;77.44;100439.44;5029606;28;20163;-65
2022/04/23 02:55:11;;;;;;;27.65;20.77;;;;;;;8.80;77.45;100431.53;5030689;28;20038;-67
2022/04/23 02:57:42;;;;;;;28.85;20.20;;;;;;;8.81;77.56;100430.59;5030914;28;20042;-67
2022/04/23 03:00:11;;;;;;;27.17;18.10;;;;;;;8.78;77.74;100425.47;5031233;28;20038;-67
2022/04/23 03:02:40;;;;;;;28.38;19.23;;;;;;;8.79;77.69;100430.66;5029422;28;20052;-68
2022/04/23 03:05:12;;;;;;;30.83;20.65;;;;;;;8.79;77.65;100425.41;5030124;28;20053;-68
2022/04/23 03:07:39;;;;;;;30.15;20.25;;;;;;;8.78;77.73;100421.06;5021906;28;20034;-68
2022/04/23 03:10:11;;;;;;;29.65;20.23;;;;;;;8.81;77.45;100427.97;5025744;28;20042;-66
2022/04/23 03:12:40;;;;;;;28.75;20.52;;;;;;;8.82;77.51;100430.59;5027479;28;20137;-66
2022/04/23 03:15:11;;;;;;;31.65;20.65;;;;;;;8.82;77.43;100427.06;5028770;28;20555;-66
2022/04/23 03:17:39;;;;;;;29.02;20.02;;;;;;;8.81;77.69;100430.59;5030114;28;20034;-67
2022/04/23 03:20:08;;;;;;;29.23;21.17;;;;;;;8.78;77.50;100434.19;5030490;28;20125;-66
2022/04/23 03:22:39;;;;;;;28.95;20.70;;;;;;;8.78;77.93;100434.19;5029191;28;20073;-66
2022/04/23 03:25:09;;;;;;;28.90;20.83;;;;;;;8.76;77.97;100417.59;5028866;28;20421;-65
2022/04/23 03:27:36;;;;;;;30.23;19.27;;;;;;;8.76;78.15;100422.00;5026989;28;20038;-67
2022/04/23 03:30:05;;;;;;;27.95;19.63;;;;;;;8.75;78.08;100425.53;5026426;28;20044;-67
2022/04/23 03:32:33;;;;;;;29.33;21.85;;;;;;;8.72;78.19;100420.38;5029531;28;20042;-67
2022/04/23 03:35:00;;;;;;;28.67;21.45;;;;;;;8.72;78.18;100420.38;5025323;28;20046;-67
2022/04/23 03:37:28;;;;;;;29.48;20.63;;;;;;;8.73;78.10;100415.09;5032043;28;20045;-67
2022/04/23 03:39:55;;;;;;;29.67;21.65;;;;;;;8.72;78.09;100415.13;5028972;28;20073;-67
2022/04/23 03:42:22;;;;;;;29.95;21.10;;;;;;;8.68;78.10;100417.84;5028389;28;20526;-67
2022/04/23 03:44:50;;;;;;;27.80;20.50;;;;;;;8.67;78.44;100416.13;5028819;28;20042;-67
2022/04/23 03:47:17;;;;;;;28.02;21.33;;;;;;;8.69;78.27;100413.44;5032075;28;20049;-70
2022/04/23 03:49:45;;;;;;;27.75;21.25;;;;;;;8.69;78.52;100411.69;5028856;28;20065;-68
2022/04/23 03:52:12;;;;;;;28.90;20.55;;;;;;;8.66;78.20;100411.78;5031734;28;20100;-69
2022/04/23 03:54:40;;;;;;;26.58;20.13;;;;;;;8.66;78.76;100416.16;5026582;28;20048;-69
2022/04/23 03:57:07;;;;;;;28.25;21.33;;;;;;;8.65;78.62;100407.41;5022870;28;20065;-69
2022/04/23 03:59:37;;;;;;;30.33;21.70;;;;;;;8.64;78.43;100408.31;5029071;28;20048;-69
2022/04/23 04:02:05;;;;;;;29.27;19.95;;;;;;;8.63;78.88;100414.47;5030114;28;20046;-67
2022/04/23 04:04:33;;;;;;;28.52;21.13;;;;;;;8.65;78.87;100409.16;5027920;28;20805;-67
2022/04/23 04:07:01;;;;;;;30.33;21.75;;;;;;;8.64;78.73;100403.06;5030306;28;20061;-68
2022/04/23 04:09:29;;;;;;;29.13;20.98;;;;;;;8.65;78.58;100403.91;5028984;28;20045;-67
2022/04/23 04:12:02;;;;;;;27.50;20.75;;;;;;;8.65;78.82;100403.91;5029001;28;20484;-67
2022/04/23 04:14:35;;;;;;;30.20;21.65;;;;;;;8.64;78.74;100396.97;5017940;28;20046;-69
2022/04/23 04:17:07;;;;;;;28.35;20.30;;;;;;;8.66;78.69;100403.00;5028846;28;20108;-69
2022/04/23 04:19:35;;;;;;;27.25;20.15;;;;;;;8.66;78.71;100405.63;5029796;28;20525;-67
2022/04/23 04:22:04;;;;;;;28.73;20.50;;;;;;;8.67;78.66;100400.34;5030909;28;20038;-67
2022/04/23 04:24:31;;;;;;;28.45;20.30;;;;;;;8.68;78.85;100393.31;5030030;28;20040;-68
2022/04/23 04:27:00;;;;;;;28.63;21.13;;;;;;;8.71;78.86;100393.25;5022056;28;20541;-67
2022/04/23 04:29:28;;;;;;;28.50;20.85;;;;;;;8.75;78.78;100392.22;5024841;28;20077;-66
2022/04/23 04:31:56;;;;;;;27.08;20.48;;;;;;;8.76;78.51;100388.69;5026730;28;20059;-67
2022/04/23 04:34:30;;;;;;;29.35;20.30;;;;;;;8.79;78.68;100385.97;5026991;28;20080;-67
2022/04/23 04:37:11;;;;;;;29.23;21.42;;;;;;;8.78;78.36;100393.94;5023141;28;20490;-67
2022/04/23 04:39:42;;;;;;;29.67;21.02;;;;;;;8.80;78.28;100394.75;5022386;28;20038;-67
2022/04/23 04:42:11;;;;;;;28.95;21.65;;;;;;;8.82;78.40;100393.78;5028205;28;20042;-66
2022/04/23 04:44:39;;;;;;;28.38;20.27;;;;;;;8.83;78.38;100394.63;5030406;28;20050;-66
2022/04/23 04:47:11;;;;;;;30.33;21.50;;;;;;;8.87;78.36;100396.28;5029392;28;20041;-69
2022/04/23 04:49:39;;;;;;;27.83;20.92;;;;;;;8.90;78.05;100393.56;5030251;28;20046;-66
2022/04/23 04:52:06;;;;;;;28.02;20.45;;;;;;;8.94;78.05;100392.53;5014810;28;20030;-67
2022/04/23 04:54:34;;;;;;;27.35;21.65;;;;;;;8.97;77.94;100391.56;5020335;28;20176;-67
2022/04/23 04:57:03;;;;;;;28.20;20.95;;;;;;;8.98;77.90;100394.19;5023403;28;20080;-68
2022/04/23 04:59:34;;;;;;;26.85;20.98;;;;;;;9.03;77.61;100396.66;5022162;28;20050;-68
2022/04/23 05:02:02;;;;;;;28.88;21.00;;;;;;;9.07;77.49;100394.78;5023635;28;20120;-67
2022/04/23 05:04:30;;;;;;;28.40;20.95;;;;;;;9.13;77.38;100389.34;5020943;28;20046;-67
2022/04/23 05:06:57;;;;;;;26.67;20.02;;;;;;;9.32;76.86;100394.88;5019590;28;20046;-68
2022/04/23 05:09:24;;;;;;;27.75;20.52;;;;;;;9.63;76.00;100401.78;5020483;28;20568;-68
2022/04/23 05:11:51;;;;;;;26.02;20.33;;;;;;;9.90;75.27;100407.00;5022864;28;20042;-69
2022/04/23 05:14:19;;;;;;;25.63;19.90;;;;;;;10.45;73.09;100404.22;5012902;28;20046;-67
2022/04/23 05:16:47;;;;;;;24.75;19.25;;;;;;;11.03;70.96;100397.66;5025033;28;20054;-71
2022/04/23 05:19:14;;;;;;;25.98;19.73;;;;;;;11.55;69.66;100399.13;5028747;28;20073;-69
2022/04/23 05:21:41;;;;;;;24.35;19.52;;;;;;;11.99;67.96;100398.19;5026088;28;20038;-69
2022/04/23 05:24:08;;;;;;;25.65;19.08;;;;;;;12.32;66.92;100394.97;5029548;28;20046;-68
2022/04/23 05:26:35;;;;;;;22.58;18.25;;;;;;;12.58;65.07;100402.59;5030140;28;20109;-67
2022/04/23 05:29:03;;;;;;;23.77;18.90;;;;;;;12.90;64.35;100394.09;5017918;28;20049;-67
2022/04/23 05:31:32;;;;;;;23.50;18.13;;;;;;;13.16;63.33;100397.28;5022717;28;20050;-67
2022/04/23 05:34:00;;;;;;;19.98;17.35;;;;;;;13.41;62.58;100393.47;5022532;28;20638;-68
2022/04/23 05:36:27;;;;;;;21.30;16.98;;;;;;;13.60;61.24;100388.97;5025242;28;20042;-68
2022/04/23 05:38:55;;;;;;;20.02;17.05;;;;;;;13.66;60.96;100380.72;5015350;28;20046;-67
2022/04/23 05:41:23;;;;;;;22.55;16.95;;;;;;;13.51;61.03;100386.78;5028190;28;20045;-69
2022/04/23 05:43:51;;;;;;;21.35;15.60;;;;;;;12.89;62.77;100392.38;5028044;28;20901;-68
2022/04/23 05:46:18;;;;;;;21.10;16.75;;;;;;;12.45;64.70;100403.22;5028584;28;20524;-68
2022/04/23 05:48:45;;;;;;;19.13;16.15;;;;;;;12.19;65.49;100402.59;5030234;28;20038;-67
2022/04/23 05:51:12;;;;;;;19.77;16.75;;;;;;;12.01;65.91;100393.66;5020427;28;20129;-69
2022/04/23 05:53:41;;;;;;;19.48;16.02;;;;;;;11.94;66.43;100401.00;5010759;28;20987;-68
2022/04/23 05:56:08;;;;;;;21.45;17.23;;;;;;;11.88;66.79;100401.25;5016665;28;20465;-69
2022/04/23 05:58:36;;;;;;;21.77;16.38;;;;;;;11.81;66.72;100390.06;5025991;28;20455;-70
2022/04/23 06:01:04;;;;;;;20.23;17.45;;;;;;;11.74;67.14;100394.78;5018046;28;20081;-70
2022/04/23 06:03:32;;;;;;;21.90;17.77;;;;;;;11.75;67.03;100393.00;5028102;28;20598;-69
2022/04/23 06:05:59;;;;;;;22.42;17.40;;;;;;;11.71;67.31;100388.75;5026293;28;20042;-69
2022/04/23 06:08:26;;;;;;;21.83;18.40;;;;;;;11.72;67.31;100393.97;5028927;28;20539;-70
2022/04/23 06:11:01;;;;;;;21.17;17.42;;;;;;;11.75;67.43;100387.72;5024882;28;20120;-69
2022/04/23 06:13:28;;;;;;;20.45;17.75;;;;;;;11.83;67.59;100390.88;5025794;28;20117;-70
2022/04/23 06:15:55;;;;;;;22.73;17.58;;;;;;;11.99;67.06;100400.81;5008964;28;20148;-69
2022/04/23 06:18:22;;;;;;;23.05;17.70;;;;;;;12.10;66.16;100395.94;5025952;28;20056;-69
2022/04/23 06:20:50;;;;;;;23.15;17.52;;;;;;;12.13;66.42;100390.50;5027562;28;20034;-69
2022/04/23 06:23:17;;;;;;;21.38;17.45;;;;;;;12.22;65.97;100390.09;5029174;28;20046;-69
2022/04/23 06:25:44;;;;;;;24.85;18.67;;;;;;;12.27;65.91;100388.13;5019688;28;20042;-69
2022/04/23 06:28:11;;;;;;;22.50;17.63;;;;;;;12.35;65.64;100390.44;5017095;28;20049;-69
2022/04/23 06:30:38;;;;;;;21.88;17.90;;;;;;;12.37;65.13;100387.69;5021336;28;20035;-68
2022/04/23 06:33:05;;;;;;;23.70;18.33;;;;;;;12.38;65.30;100384.13;5016614;28;20781;-69
2022/04/23 06:35:34;;;;;;;23.45;18.15;;;;;;;12.46;65.24;100386.44;5021281;28;20101;-70
2022/04/23 06:38:02;;;;;;;25.67;18.17;;;;;;;12.55;64.91;100392.16;5021811;28;20106;-70
2022/04/23 06:40:29;;;;;;;21.17;16.83;;;;;;;12.62;64.61;100392.72;5018897;28;20038;-70
2022/04/23 06:42:56;;;;;;;23.77;18.75;;;;;;;12.67;64.39;100385.44;5017163;28;20471;-69
2022/04/23 06:45:32;;;;;;;21.33;17.80;;;;;;;12.88;64.27;100378.28;5017089;28;20484;-68
2022/04/23 06:48:06;;;;;;;23.10;17.83;;;;;;;12.99;63.13;100375.13;5012463;28;20130;-68
2022/04/23 06:50:36;;;;;;;23.58;17.88;;;;;;;13.02;63.18;100380.28;5022952;28;20136;-71
2022/04/23 06:53:04;;;;;;;22.88;17.70;;;;;;;13.08;63.20;100383.53;5031196;28;20512;-69
2022/04/23 06:55:32;;;;;;;22.70;17.35;;;;;;;13.10;62.76;100382.56;5028087;28;20104;-69
2022/04/23 06:57:59;;;;;;;22.17;17.95;;;;;;;13.14;62.86;100385.91;5027572;28;20034;-70
2022/04/23 07:00:27;;;;;;;23.80;19.33;;;;;;;13.27;62.92;100389.69;5018776;28;20038;-69
2022/04/23 07:02:59;;;;;;;21.73;16.50;;;;;;;13.38;62.01;100378.56;5033342;28;20570;-68
2022/04/23 07:05:26;;;;;;;19.45;15.85;;;;;;;13.39;61.19;100385.59;5034421;28;20053;-69
2022/04/23 07:08:01;;;;;;;23.30;18.25;;;;;;;13.43;62.04;100376.56;5030510;28;20456;-69
2022/04/23 07:10:31;;;;;;;21.85;17.90;;;;;;;13.57;61.47;100388.25;5025983;28;20106;-69
2022/04/23 07:12:59;;;;;;;22.75;18.77;;;;;;;13.75;60.65;100379.38;5025220;28;20519;-69
2022/04/23 07:15:28;;;;;;;24.27;18.52;;;;;;;13.87;60.60;100385.00;5020313;28;20077;-70
2022/04/23 07:17:57;;;;;;;20.95;18.00;;;;;;;14.07;59.87;100378.69;5023810;28;20125;-69
2022/04/23 07:20:25;;;;;;;24.25;18.33;;;;;;;14.39;58.71;100374.31;5021627;28;20038;-68
2022/04/23 07:25:38;;;;;;;23.70;18.33;;;;;;;14.59;57.81;100375.03;5025374;28;20052;-69
2022/04/23 07:28:07;;;;;;;21.42;17.60;;;;;;;14.62;57.46;100366.03;5021264;28;20038;-70
2022/04/23 07:30:35;;;;;;;24.55;17.90;;;;;;;14.56;57.33;100376.06;5023386;28;20054;-70
2022/04/23 07:33:03;;;;;;;22.30;17.77;;;;;;;14.46;57.21;100372.19;5020283;28;20054;-68
2022/04/23 07:38:21;;;;;;;21.90;18.17;;;;;;;14.53;57.52;100359.47;5017880;28;20042;-69
2022/04/23 07:40:50;;;;;;;24.73;18.88;;;;;;;14.67;57.33;100366.69;5027435;28;20046;-71
2022/04/23 07:43:18;;;;;;;20.00;16.80;;;;;;;14.69;56.77;100364.81;5030894;28;20882;-70
2022/04/23 07:45:46;;;;;;;21.58;18.17;;;;;;;14.70;56.72;100367.38;5030924;28;20121;-69
2022/04/23 07:48:14;;;;;;;20.60;17.48;;;;;;;14.81;57.03;100361.44;5032071;28;20042;-69
2022/04/23 07:50:42;;;;;;;22.02;17.77;;;;;;;14.96;55.87;100359.72;5030644;28;20530;-68
2022/04/23 07:53:11;;;;;;;19.05;15.68;;;;;;;15.08;55.00;100360.84;5031943;28;20078;-69
2022/04/23 07:55:41;;;;;;;19.60;16.10;;;;;;;15.18;54.62;100362.03;5031893;28;20049;-68
2022/04/23 07:58:11;;;;;;;21.08;17.33;;;;;;;15.21;54.94;100361.84;5031947;28;20038;-69
2022/04/23 08:00:40;;;;;;;21.85;17.60;;;;;;;15.30;54.33;100355.16;5030708;28;20100;-70
2022/04/23 08:03:08;;;;;;;18.88;16.40;;;;;;;15.31;53.95;100348.06;5031620;28;20057;-70
2022/04/23 08:05:37;;;;;;;20.42;16.90;;;;;;;15.32;54.05;100347.09;5031187;28;20042;-68
2022/04/23 08:08:05;;;;;;;20.58;16.40;;;;;;;15.41;54.14;100343.06;5030142;28;20034;-68
2022/04/23 08:10:33;;;;;;;22.17;17.40;;;;;;;15.43;54.41;100352.66;5031311;28;20066;-69
2022/04/23 08:13:01;;;;;;;23.23;17.50;;;;;;;15.46;54.03;100348.97;5030644;28;20038;-69
2022/04/23 08:15:28;;;;;;;23.63;17.88;;;;;;;15.47;53.59;100346.22;5030969;28;20053;-69
2022/04/23 08:17:55;;;;;;;21.00;17.48;;;;;;;15.55;53.72;100350.22;5030920;28;20047;-69
2022/04/23 08:20:22;;;;;;;21.30;16.67;;;;;;;15.70;53.73;100346.66;5030798;28;20038;-68
2022/04/23 08:22:49;;;;;;;20.60;17.00;;;;;;;15.82;52.94;100348.56;5033425;28;20038;-67
2022/04/23 08:25:16;;;;;;;21.80;17.17;;;;;;;15.94;52.13;100339.03;5034157;28;20034;-68
2022/04/23 08:27:53;;;;;;;20.70;17.67;;;;;;;15.98;52.22;100347.69;5034542;28;20124;-69
2022/04/23 08:30:34;;;;;;;24.98;17.45;;;;;;;16.12;52.74;100341.50;5035142;28;20045;-68
2022/04/23 08:33:06;;;;;;;20.30;16.98;;;;;;;16.34;52.12;100337.53;5033907;28;20084;-69
2022/04/23 08:35:36;;;;;;;21.23;17.20;;;;;;;16.48;51.53;100339.31;5033773;28;20078;-70
2022/04/23 08:38:05;;;;;;;20.17;17.75;;;;;;;16.59;51.29;100337.69;5032883;28;20803;-68
2022/04/23 08:40:44;;;;;;;21.80;17.60;;;;;;;16.78;50.48;100336.53;5033194;28;20049;-69
2022/04/23 08:43:11;;;;;;;22.35;17.35;;;;;;;16.94;49.52;100344.38;5033082;28;20092;-68
2022/04/23 08:45:39;;;;;;;21.50;17.70;;;;;;;16.99;49.38;100336.97;5033288;28;20128;-69
2022/04/23 08:48:11;;;;;;;22.23;17.50;;;;;;;17.02;49.56;100341.22;5034007;28;20042;-68
2022/04/23 08:50:42;;;;;;;20.55;16.80;;;;;;;17.08;48.89;100349.66;5034222;28;20054;-69
2022/04/23 08:53:31;;;;;;;20.65;16.75;;;;;;;16.95;49.07;100345.25;5035644;28;20562;-69
2022/04/23 08:56:01;;;;;;;22.35;18.00;;;;;;;16.95;48.79;100322.13;5033987;28;20046;-69
2022/04/23 08:58:30;;;;;;;21.98;17.52;;;;;;;16.98;49.27;100340.56;5034791;28;20048;-69
2022/04/23 09:00:58;;;;;;;22.90;17.85;;;;;;;17.17;48.67;100336.69;5035127;28;20038;-70
2022/04/23 09:03:25;;;;;;;25.42;17.33;;;;;;;17.14;49.21;100335.09;5035081;28;20041;-69
2022/04/23 09:05:53;;;;;;;22.13;16.98;;;;;;;17.19;48.05;100334.78;5035509;28;20044;-69
2022/04/23 09:08:20;;;;;;;22.05;17.00;;;;;;;17.26;48.22;100335.25;5034973;28;20526;-69
2022/04/23 09:10:54;;;;;;;23.23;16.88;;;;;;;17.14;47.68;100344.91;5034925;28;20082;-69
2022/04/23 09:13:29;;;;;;;23.42;16.58;;;;;;;16.81;48.21;100349.59;5034664;28;20042;-69
2022/04/23 09:24:49;;;;;;;22.23;18.15;;;;;;;17.25;47.16;100341.53;5034415;28;20132;-69
2022/04/23 09:27:16;;;;;;;23.83;17.48;;;;;;;17.22;48.15;100347.91;5034813;28;20045;-69
2022/04/23 09:30:07;;;;;;;22.05;18.40;;;;;;;17.27;47.59;100335.13;5034890;28;20956;-69
2022/04/23 09:32:36;;;;;;;28.15;17.08;;;;;;;17.13;47.35;100337.88;5033545;28;20088;-69
2022/04/23 09:35:05;;;;;;;22.35;17.15;;;;;;;17.23;47.84;100336.31;5034292;28;20050;-69
2022/04/23 09:38:11;;;;;;;21.33;17.10;;;;;;;17.24;47.29;100343.34;5034914;28;20673;-68
2022/04/23 09:40:23;;;;;;;25.33;19.48;;;;;;;17.11;48.18;100343.28;5034789;28;20038;-68
2022/04/23 09:43:05;;;;;;;22.83;17.95;;;;;;;17.07;48.25;100344.44;5034646;28;20504;-69
2022/04/23 09:45:39;;;;;;;24.52;18.45;;;;;;;17.27;48.20;100336.94;5034322;28;20530;-69
2022/04/23 09:48:12;;;;;;;22.77;17.83;;;;;;;17.70;47.27;100334.91;5034491;28;20041;-69
2022/04/23 09:50:45;;;;;;;26.70;18.10;;;;;;;18.09;46.77;100334.09;5034513;28;20038;-69
2022/04/23 09:53:15;;;;;;;22.42;17.85;;;;;;;18.20;45.35;100331.53;5034450;28;20535;-69
2022/04/23 09:55:45;;;;;;;28.83;18.23;;;;;;;18.10;44.89;100339.34;5034026;28;20415;-69
2022/04/23 09:58:14;;;;;;;21.92;17.52;;;;;;;18.04;44.82;100342.41;5034535;28;20533;-69
2022/04/23 10:00:46;;;;;;;22.63;16.70;;;;;;;18.02;44.78;100338.16;5034221;28;20050;-69
2022/04/23 10:03:14;;;;;;;23.05;17.17;;;;;;;18.18;45.06;100340.59;5034904;28;20042;-69
2022/04/23 10:05:48;;;;;;;27.73;19.00;;;;;;;18.54;45.34;100341.59;5033823;28;20775;-70
2022/04/23 10:08:21;;;;;;;21.85;17.88;;;;;;;18.84;44.76;100324.31;5034310;28;20427;-68
2022/04/23 10:11:10;;;;;;;23.27;18.27;;;;;;;19.15;43.68;100332.75;5034252;28;20535;-68
2022/04/23 10:13:44;;;;;;;24.58;18.10;;;;;;;19.12;42.59;100327.69;5034370;28;20042;-70
2022/04/23 10:16:13;;;;;;;26.25;18.25;;;;;;;18.60;43.57;100331.34;5033885;28;20590;-69
2022/04/23 10:18:42;;;;;;;21.95;17.15;;;;;;;18.33;44.44;100328.84;5032985;28;20042;-69
2022/04/23 10:21:17;;;;;;;24.60;18.90;;;;;;;18.11;44.29;100333.00;5033328;28;20073;-70
2022/04/23 10:24:28;;;;;;;26.73;18.15;;;;;;;17.98;45.63;100332.19;5033490;28;20125;-70
2022/04/23 10:27:06;;;;;;;24.95;18.17;;;;;;;17.90;45.62;100322.00;5040514;28;20062;-69
2022/04/23 10:29:34;;;;;;;26.02;18.33;;;;;;;18.16;45.57;100317.56;5032655;28;20046;-68
2022/04/23 10:32:10;;;;;;;23.83;17.40;;;;;;;18.38;45.29;100309.81;5033239;28;20048;-69
2022/04/23 10:34:40;;;;;;;22.88;17.35;;;;;;;18.90;44.30;100318.53;5032508;28;20500;-70
2022/04/23 10:37:20;;;;;;;23.58;16.88;;;;;;;19.19;42.99;100313.72;5033313;28;20096;-69
2022/04/23 10:39:53;;;;;;;22.73;18.17;;;;;;;19.20;42.57;100307.41;5033040;28;20038;-68
2022/04/23 10:42:25;;;;;;;22.60;18.33;;;;;;;19.08;42.43;100313.66;5033033;28;20072;-68
2022/04/23 10:44:56;;;;;;;25.17;17.05;;;;;;;18.62;43.78;100315.19;5030431;28;20054;-69
2022/04/23 10:47:28;;;;;;;24.38;18.90;;;;;;;18.51;45.05;100307.16;5033348;28;20042;-69
2022/04/23 10:50:16;;;;;;;26.02;20.25;;;;;;;18.55;44.21;100309.47;5032744;28;20049;-69
2022/04/23 10:52:46;;;;;;;22.92;17.85;;;;;;;18.96;43.21;100312.78;5032112;28;20570;-70
2022/04/23 10:55:15;;;;;;;21.90;18.25;;;;;;;19.17;43.19;100313.00;5032650;28;20986;-70
2022/04/23 10:57:53;;;;;;;22.38;18.35;;;;;;;19.43;42.83;100307.50;5032662;28;20050;-69
2022/04/23 11:00:22;;;;;;;24.58;16.95;;;;;;;19.65;42.27;100308.53;5032870;28;20089;-69
2022/04/23 11:03:10;;;;;;;25.25;17.05;;;;;;;19.62;42.24;100306.94;5033068;28;20074;-69
2022/04/23 11:14:39;;;;;;;27.35;19.02;;;;;;;19.44;41.64;100298.50;5030529;28;20050;-69
2022/04/23 11:17:11;;;;;;;24.10;17.47;;;;;;;19.54;41.17;100307.53;5031897;28;20085;-69
2022/04/23 11:19:41;;;;;;;21.88;18.88;;;;;;;19.65;41.61;100295.16;5032120;28;20070;-69
2022/04/23 11:22:10;;;;;;;27.58;17.75;;;;;;;19.86;41.31;100288.19;5032274;28;20058;-69
2022/04/23 11:24:39;;;;;;;22.08;17.58;;;;;;;20.08;40.33;100290.97;5031993;28;20038;-69
2022/04/23 11:27:08;;;;;;;22.38;16.60;;;;;;;20.17;39.89;100292.91;5032401;28;20093;-69
2022/04/23 11:29:38;;;;;;;21.23;15.52;;;;;;;20.19;39.41;100296.31;5032001;28;20052;-69
2022/04/23 11:32:07;;;;;;;23.40;16.98;;;;;;;20.22;39.33;100293.41;5031908;28;20053;-69
2022/04/23 11:34:39;;;;;;;20.65;16.33;;;;;;;20.41;39.48;100278.56;5032301;28;20053;-69
2022/04/23 11:37:10;;;;;;;21.85;16.77;;;;;;;20.52;39.34;100283.03;5032097;28;20145;-69
2022/04/23 11:39:37;;;;;;;18.90;15.23;;;;;;;20.55;38.50;100278.25;5031958;28;20038;-69
2022/04/23 11:42:06;;;;;;;20.02;15.60;;;;;;;20.57;38.80;100279.00;5032039;28;20050;-69
2022/04/23 11:44:46;;;;;;;21.00;16.02;;;;;;;20.53;38.41;100274.88;5031725;28;20046;-69
2022/04/23 11:47:27;;;;;;;21.63;15.45;;;;;;;20.68;38.37;100277.25;5032226;28;20115;-69